Terminal Aerodrome Forecast
Issued by NWS

Home | Current Version | Previous Version | Text Only | Print | Product List | Glossary On
Versions: 1 2 3 4 5 6 7 8 9 10 11 12 13 14
694
FTUS45 KRIW 210531
TAFBPI
TAF
KBPI 210531Z 2106/2206 34007KT P6SM SKC
     FM211200 VRB05KT P6SM SKC
     FM212100 22010KT P6SM SCT100
     FM220200 VRB05KT P6SM SCT120=

USA.gov is the U.S. government's official web portal to all federal, state and local government web resources and services.